createdAt,value
2023-03-06T00:00:19.301Z,99652.13
2023-03-06T00:02:46.216Z,99643.53
2023-03-06T00:05:14.529Z,99644.28
2023-03-06T00:07:41.998Z,99645.97
2023-03-06T00:10:12.488Z,99652.72
2023-03-06T00:12:38.905Z,99650.81
2023-03-06T00:15:06.010Z,99647.47
2023-03-06T00:17:32.527Z,99645.72
2023-03-06T00:19:59.057Z,99637.16
2023-03-06T00:22:26.592Z,99632.00
2023-03-06T00:24:53.684Z,99639.63
2023-03-06T00:27:21.231Z,99626.78
2023-03-06T00:29:49.779Z,99631.84
2023-03-06T00:32:16.305Z,99621.53
2023-03-06T00:34:42.875Z,99628.28
2023-03-06T00:37:09.382Z,99624.00
2023-03-06T00:39:35.908Z,99623.91
2023-03-06T00:42:02.429Z,99614.53
2023-03-06T00:44:32.002Z,99611.06
2023-03-06T00:46:58.528Z,99607.63
2023-03-06T00:49:25.068Z,99602.44
2023-03-06T00:51:51.648Z,99602.44
2023-03-06T00:54:18.227Z,99600.72
2023-03-06T00:56:44.760Z,99601.50
2023-03-06T00:59:11.434Z,99596.41
2023-03-06T01:01:38.432Z,99595.59
2023-03-06T01:04:05.113Z,99595.59
2023-03-06T01:06:31.651Z,99589.69
2023-03-06T01:08:58.456Z,99593.19
2023-03-06T01:11:25.023Z,99586.44
2023-03-06T01:13:51.906Z,99590.78
2023-03-06T01:16:19.532Z,99590.00
2023-03-06T01:18:46.719Z,99574.75
2023-03-06T01:21:14.336Z,99585.09
2023-03-06T01:23:42.525Z,99580.84
2023-03-06T01:26:11.041Z,99580.09
2023-03-06T01:28:40.028Z,99576.75
2023-03-06T01:31:09.591Z,99574.22
2023-03-06T01:33:38.482Z,99564.00
2023-03-06T01:36:10.480Z,99564.03
2023-03-06T01:38:38.363Z,99559.84
2023-03-06T01:41:07.540Z,99559.84
2023-03-06T01:43:38.422Z,99564.16
2023-03-06T01:46:44.081Z,99555.63
2023-03-06T01:49:33.877Z,99549.66
2023-03-06T01:52:12.142Z,99546.31
2023-03-06T01:57:22.544Z,99542.94
2023-03-06T01:59:54.535Z,99540.41
2023-03-06T02:02:21.314Z,99541.28
2023-03-06T02:04:48.587Z,99533.59
2023-03-06T02:07:18.692Z,99529.41
2023-03-06T02:09:45.229Z,99514.91
2023-03-06T02:12:14.520Z,99511.56
2023-03-06T02:14:41.862Z,99505.50
2023-03-06T02:17:11.795Z,99498.63
2023-03-06T02:22:22.502Z,99497.78
2023-03-06T02:27:27.852Z,99480.75
2023-03-06T02:29:54.531Z,99468.81
2023-03-06T02:32:21.148Z,99466.22
2023-03-06T02:37:26.189Z,99456.84
2023-03-06T02:39:59.920Z,99450.84
2023-03-06T02:42:29.006Z,99448.31
2023-03-06T02:44:59.200Z,99438.09
2023-03-06T02:47:25.952Z,99441.47
2023-03-06T02:49:52.596Z,99438.09
2023-03-06T02:52:19.165Z,99441.53
2023-03-06T02:54:45.702Z,99443.25
2023-03-06T02:57:13.151Z,99446.69
2023-03-06T02:59:39.766Z,99438.22
2023-03-06T03:02:06.647Z,99434.81
2023-03-06T03:04:33.216Z,99429.69
2023-03-06T03:06:59.807Z,99429.72
2023-03-06T03:09:26.455Z,99418.63
2023-03-06T03:11:53.236Z,99422.00
2023-03-06T03:14:19.865Z,99412.59
2023-03-06T03:16:46.610Z,99410.88
2023-03-06T03:19:13.170Z,99408.31
2023-03-06T03:21:41.011Z,99398.91
2023-03-06T03:24:08.320Z,99395.41
2023-03-06T03:26:34.873Z,99399.63
2023-03-06T03:29:01.584Z,99391.97
2023-03-06T03:31:28.405Z,99394.53
2023-03-06T03:33:55.356Z,99384.31
2023-03-06T03:36:21.947Z,99388.63
2023-03-06T03:38:48.593Z,99381.84
2023-03-06T03:41:15.118Z,99377.66
2023-03-06T03:43:42.983Z,99370.84
2023-03-06T03:46:09.678Z,99375.13
2023-03-06T03:48:36.187Z,99364.97
2023-03-06T03:51:08.418Z,99363.31
2023-03-06T03:53:34.998Z,99358.19
2023-03-06T03:56:01.664Z,99360.81
2023-03-06T03:58:28.234Z,99352.31
2023-03-06T04:00:54.845Z,99352.34
2023-03-06T04:03:21.723Z,99346.41
2023-03-06T04:05:48.261Z,99343.91
2023-03-06T04:08:14.884Z,99346.44
2023-03-06T04:10:41.417Z,99338.84
2023-03-06T04:13:09.973Z,99335.41
2023-03-06T04:15:36.955Z,99332.84
2023-03-06T04:18:03.858Z,99337.13
2023-03-06T04:20:30.769Z,99326.09
2023-03-06T04:22:57.339Z,99323.53
2023-03-06T04:25:23.908Z,99319.22
2023-03-06T04:27:50.544Z,99312.47
2023-03-06T04:30:17.274Z,99306.47
2023-03-06T04:32:43.935Z,99311.66
2023-03-06T04:35:10.554Z,99302.28
2023-03-06T04:37:37.077Z,99304.00
2023-03-06T04:40:04.513Z,99299.75
2023-03-06T04:42:31.279Z,99302.38
2023-03-06T04:44:57.837Z,99294.75
2023-03-06T04:47:24.410Z,99281.97
2023-03-06T04:49:51.119Z,99279.44
2023-03-06T04:52:17.709Z,99268.34
2023-03-06T04:54:46.026Z,99260.69
2023-03-06T04:57:14.157Z,99264.13
2023-03-06T04:59:40.684Z,99268.41
2023-03-06T05:02:07.291Z,99265.88
2023-03-06T05:04:33.904Z,99268.47
2023-03-06T05:07:00.427Z,99265.09
2023-03-06T05:09:26.948Z,99260.91
2023-03-06T05:11:53.559Z,99265.19
2023-03-06T05:14:20.753Z,99260.09
2023-03-06T05:16:47.361Z,99263.53
2023-03-06T05:19:14.122Z,99251.63
2023-03-06T05:21:40.650Z,99256.75
2023-03-06T05:24:07.268Z,99246.53
2023-03-06T05:26:34.836Z,99246.53
2023-03-06T05:29:01.387Z,99241.44
2023-03-06T05:31:28.008Z,99241.47
2023-03-06T05:33:54.545Z,99235.53
2023-03-06T05:36:21.151Z,99235.56
2023-03-06T05:38:47.689Z,99234.69
2023-03-06T05:41:14.313Z,99236.41
2023-03-06T05:43:40.928Z,99232.16
2023-03-06T05:46:08.232Z,99229.63
2023-03-06T05:48:35.624Z,99228.78
2023-03-06T05:51:02.722Z,99222.81
2023-03-06T05:53:29.821Z,99228.00
2023-03-06T05:56:00.045Z,99222.91
2023-03-06T05:58:27.394Z,99226.34
2023-03-06T06:00:53.992Z,99212.72
2023-03-06T06:03:21.027Z,99214.44
2023-03-06T06:05:47.710Z,99205.91
2023-03-06T06:08:14.276Z,99189.72
2023-03-06T06:10:40.839Z,99192.28
2023-03-06T06:13:07.847Z,99193.16
2023-03-06T06:15:34.541Z,99185.47
2023-03-06T06:18:01.298Z,99178.66
2023-03-06T06:20:28.562Z,99176.94
2023-03-06T06:22:55.323Z,99169.25
2023-03-06T06:25:22.256Z,99172.69
2023-03-06T06:27:48.973Z,99166.72
2023-03-06T06:30:15.695Z,99167.59
2023-03-06T06:32:42.422Z,99168.47
2023-03-06T06:35:09.306Z,99169.34
2023-03-06T06:37:35.852Z,99164.25
2023-03-06T06:40:02.483Z,99162.53
2023-03-06T06:42:34.621Z,99167.66
2023-03-06T06:45:05.281Z,99161.69
2023-03-06T06:47:33.064Z,99160.88
2023-03-06T06:50:00.038Z,99156.63
2023-03-06T06:52:26.612Z,99148.94
2023-03-06T06:54:53.231Z,99145.56
2023-03-06T06:57:19.911Z,99139.56
2023-03-06T06:59:46.546Z,99138.75
2023-03-06T07:02:15.722Z,99133.63
2023-03-06T07:05:00.370Z,99127.66
2023-03-06T07:07:28.928Z,99132.81
2023-03-06T07:09:56.017Z,99131.16
2023-03-06T07:12:22.872Z,99134.59
2023-03-06T07:14:49.494Z,99131.19
2023-03-06T07:17:16.117Z,99135.50
2023-03-06T07:19:42.678Z,99133.81
2023-03-06T07:22:09.293Z,99133.84
2023-03-06T07:24:35.811Z,99133.03
2023-03-06T07:27:02.390Z,99139.03
2023-03-06T07:29:29.401Z,99133.94
2023-03-06T07:31:55.981Z,99133.13
2023-03-06T07:34:22.694Z,99127.19
2023-03-06T07:36:50.916Z,99136.59
2023-03-06T07:39:17.815Z,99141.78
2023-03-06T07:41:44.504Z,99134.97
2023-03-06T07:44:11.078Z,99135.03
2023-03-06T07:46:37.675Z,99132.47
2023-03-06T07:49:04.273Z,99141.91
2023-03-06T07:51:30.838Z,99136.81
2023-03-06T07:53:57.382Z,99137.66
2023-03-06T07:56:23.973Z,99124.03
2023-03-06T07:58:50.500Z,99131.75
2023-03-06T08:01:20.233Z,99131.75
2023-03-06T08:03:47.787Z,99130.91
2023-03-06T08:06:17.112Z,99124.97
2023-03-06T08:08:46.426Z,99128.41
2023-03-06T08:11:15.841Z,99123.34
2023-03-06T08:13:42.707Z,99122.50
2023-03-06T08:16:10.149Z,99119.09
2023-03-06T08:18:39.603Z,99119.94
2023-03-06T08:21:13.321Z,99125.97
2023-03-06T08:23:40.604Z,99118.28
2023-03-06T08:26:10.769Z,99120.00
2023-03-06T08:28:37.311Z,99120.03
2023-03-06T08:31:10.166Z,99125.19
2023-03-06T08:33:37.038Z,99114.94
2023-03-06T08:36:03.787Z,99114.13
2023-03-06T08:38:30.353Z,99117.53
2023-03-06T08:40:57.057Z,99115.88
2023-03-06T08:43:23.587Z,99123.56
2023-03-06T08:45:54.860Z,99121.88
2023-03-06T08:48:21.637Z,99113.34
2023-03-06T08:50:48.423Z,99109.94
2023-03-06T08:53:15.295Z,99116.81
2023-03-06T08:55:41.894Z,99109.16
2023-03-06T08:58:08.712Z,99112.59
2023-03-06T09:00:37.678Z,99111.75
2023-03-06T09:03:04.943Z,99108.38
2023-03-06T09:05:32.213Z,99101.56
2023-03-06T09:07:58.834Z,99099.03
2023-03-06T09:10:26.191Z,99102.47
2023-03-06T09:12:55.084Z,99102.53
2023-03-06T09:15:22.926Z,99097.44
2023-03-06T09:17:50.849Z,99097.47
2023-03-06T09:20:18.582Z,99085.50
2023-03-06T09:22:45.764Z,99088.09
2023-03-06T09:25:13.856Z,99088.97
2023-03-06T09:27:41.058Z,99082.97
2023-03-06T09:30:08.791Z,99085.56
2023-03-06T09:32:35.455Z,99088.13
2023-03-06T09:35:02.034Z,99083.03
2023-03-06T09:37:28.575Z,99077.88
2023-03-06T09:39:55.192Z,99071.88
2023-03-06T09:42:23.809Z,99074.47
2023-03-06T09:44:54.801Z,99067.59
2023-03-06T09:47:48.372Z,99059.84
2023-03-06T09:50:40.744Z,99058.97
2023-03-06T09:53:38.000Z,99052.03
2023-03-06T09:56:17.959Z,99053.72
2023-03-06T09:58:50.113Z,99053.69
2023-03-06T10:01:23.601Z,99053.66
2023-03-06T10:06:30.949Z,99054.41
2023-03-06T10:09:05.620Z,99047.56
2023-03-06T10:11:46.323Z,99044.13
2023-03-06T10:14:30.615Z,99046.69
2023-03-06T10:16:58.540Z,99044.09
2023-03-06T10:19:34.124Z,99036.28
2023-03-06T10:22:07.261Z,99037.94
2023-03-06T10:24:48.160Z,99032.69
2023-03-06T10:35:21.793Z,99028.78
2023-03-06T10:37:49.431Z,99027.03
2023-03-06T10:40:31.112Z,99020.16
2023-03-06T10:43:10.872Z,99023.53
2023-03-06T10:45:49.451Z,99017.47
2023-03-06T10:48:25.335Z,99020.00
2023-03-06T10:50:54.898Z,99022.50
2023-03-06T10:56:01.394Z,99024.22
2023-03-06T10:58:30.329Z,99024.22
2023-03-06T11:03:54.204Z,99018.22
2023-03-06T11:06:35.188Z,99021.66
2023-03-06T11:11:51.374Z,99004.41
2023-03-06T11:14:23.022Z,99006.13
2023-03-06T11:16:53.423Z,99009.59
2023-03-06T11:19:29.500Z,99012.28
2023-03-06T11:22:18.466Z,99009.75
2023-03-06T11:24:50.402Z,98996.03
2023-03-06T11:27:34.531Z,98995.19
2023-03-06T11:30:07.666Z,99001.22
2023-03-06T11:32:57.625Z,99001.25
2023-03-06T11:35:28.429Z,98997.75
2023-03-06T11:38:00.836Z,98990.84
2023-03-06T11:40:32.289Z,98980.50
2023-03-06T11:45:47.245Z,98990.72
2023-03-06T11:51:06.410Z,98980.25
2023-03-06T11:53:39.368Z,98971.56
2023-03-06T11:56:22.861Z,98966.22
2023-03-06T12:07:35.968Z,98962.69
2023-03-06T12:18:28.993Z,98951.66
2023-03-06T12:21:20.162Z,98943.13
2023-03-06T12:24:21.501Z,98937.09
2023-03-06T12:29:49.644Z,98937.13
2023-03-06T12:38:03.440Z,98917.41
2023-03-06T12:43:53.970Z,98919.25
2023-03-06T12:46:22.526Z,98918.38
2023-03-06T12:49:03.064Z,98914.97
2023-03-06T12:51:31.274Z,98911.53
2023-03-06T12:54:00.339Z,98909.81
2023-03-06T12:56:28.666Z,98911.50
2023-03-06T12:58:57.167Z,98899.38
2023-03-06T13:14:58.259Z,98886.16
2023-03-06T13:20:35.003Z,98877.63
2023-03-06T13:23:44.334Z,98872.53
2023-03-06T13:29:46.860Z,98865.75
2023-03-06T13:34:51.726Z,98865.72
2023-03-06T13:42:36.064Z,98849.47
2023-03-06T13:45:24.799Z,98846.09
2023-03-06T13:48:15.845Z,98852.88
2023-03-06T13:53:51.591Z,98839.84
2023-03-06T14:10:21.287Z,98819.53
2023-03-06T14:21:13.429Z,98810.66
2023-03-06T14:23:42.737Z,98805.47
2023-03-06T14:28:59.866Z,98800.31
2023-03-06T14:31:31.740Z,98798.56
2023-03-06T14:34:02.299Z,98795.09
2023-03-06T14:36:36.266Z,98802.88
2023-03-06T14:39:08.867Z,98793.44
2023-03-06T14:41:36.676Z,98789.97
2023-03-06T14:44:25.822Z,98798.66
2023-03-06T14:46:55.859Z,98791.78
2023-03-06T14:49:25.055Z,98791.00
2023-03-06T14:51:55.351Z,98788.31
2023-03-06T14:54:28.670Z,98792.72
2023-03-06T14:57:02.603Z,98792.06
2023-03-06T14:59:33.037Z,98784.53
2023-03-06T15:02:03.392Z,98787.59
2023-03-06T15:07:21.797Z,98790.22
2023-03-06T15:09:51.718Z,98782.56
2023-03-06T15:17:45.698Z,98775.69
2023-03-06T15:20:52.470Z,98780.91
2023-03-06T15:23:26.750Z,98794.63
2023-03-06T15:25:59.214Z,98780.91
2023-03-06T15:31:23.030Z,98788.88
2023-03-06T15:36:48.513Z,98795.44
2023-03-06T15:42:28.052Z,98783.78
2023-03-06T15:44:57.047Z,98776.16
2023-03-06T15:47:24.386Z,98771.91
2023-03-06T15:49:53.191Z,98770.25
2023-03-06T15:52:22.065Z,98760.78
2023-03-06T15:54:49.250Z,98766.81
2023-03-06T15:57:25.247Z,98759.97
2023-03-06T15:59:52.521Z,98756.47
2023-03-06T16:02:22.138Z,98754.72
2023-03-06T16:04:49.415Z,98744.44
2023-03-06T16:07:16.100Z,98744.44
2023-03-06T16:09:43.173Z,98747.00
2023-03-06T16:12:16.030Z,98747.00
2023-03-06T16:14:42.670Z,98742.69
2023-03-06T16:17:12.222Z,98741.91
2023-03-06T16:19:38.933Z,98749.66
2023-03-06T16:22:05.535Z,98748.84
2023-03-06T16:24:32.426Z,98749.72
2023-03-06T16:27:01.506Z,98742.88
2023-03-06T16:29:28.521Z,98743.66
2023-03-06T16:31:56.845Z,98746.25
2023-03-06T16:34:23.928Z,98742.00
2023-03-06T16:36:50.652Z,98750.63
2023-03-06T16:39:19.762Z,98756.72
2023-03-06T16:41:46.603Z,98754.97
2023-03-06T16:44:13.584Z,98754.13
2023-03-06T16:46:45.319Z,98752.53
2023-03-06T16:49:16.951Z,98750.94
2023-03-06T16:51:43.691Z,98748.34
2023-03-06T16:54:11.379Z,98750.22
2023-03-06T16:56:37.936Z,98748.41
2023-03-06T16:59:04.549Z,98745.88
2023-03-06T17:01:31.101Z,98741.63
2023-03-06T17:03:57.733Z,98740.75
2023-03-06T17:06:24.509Z,98739.91
2023-03-06T17:08:51.209Z,98739.06
2023-03-06T17:11:20.279Z,98752.03
2023-03-06T17:13:47.976Z,98739.16
2023-03-06T17:16:16.641Z,98742.63
2023-03-06T17:18:45.165Z,98745.19
2023-03-06T17:21:12.607Z,98740.97
2023-03-06T17:23:39.140Z,98742.66
2023-03-06T17:28:45.113Z,98749.63
2023-03-06T17:31:16.204Z,98750.47
2023-03-06T17:33:43.612Z,98755.66
2023-03-06T17:36:11.460Z,98751.34
2023-03-06T17:38:38.143Z,98748.78
2023-03-06T17:41:06.555Z,98745.41
2023-03-06T17:43:33.406Z,98738.53
2023-03-06T17:46:04.691Z,98740.28
2023-03-06T17:48:31.355Z,98748.00
2023-03-06T17:50:58.235Z,98743.69
2023-03-06T17:53:25.218Z,98747.19
2023-03-06T17:55:51.834Z,98748.88
2023-03-06T17:58:18.643Z,98755.78
2023-03-06T18:00:45.938Z,98752.31
2023-03-06T18:03:12.567Z,98747.22
2023-03-06T18:05:39.272Z,98743.81
2023-03-06T18:08:08.245Z,98743.00
2023-03-06T18:10:34.880Z,98749.84
2023-03-06T18:13:01.423Z,98750.72
2023-03-06T18:15:28.032Z,98747.25
2023-03-06T18:17:56.626Z,98751.53
2023-03-06T18:20:23.210Z,98754.97
2023-03-06T18:22:49.815Z,98748.97
2023-03-06T18:25:17.483Z,98754.09
2023-03-06T18:27:44.080Z,98752.41
2023-03-06T18:30:11.314Z,98754.09
2023-03-06T18:32:37.896Z,98743.00
2023-03-06T18:35:04.835Z,98750.72
2023-03-06T18:37:31.429Z,98744.72
2023-03-06T18:39:58.100Z,98742.19
2023-03-06T18:42:24.770Z,98739.66
2023-03-06T18:44:51.276Z,98748.19
2023-03-06T18:47:17.854Z,98739.63
2023-03-06T18:49:45.973Z,98739.66
2023-03-06T18:52:12.971Z,98737.09
2023-03-06T18:54:39.660Z,98738.78
2023-03-06T18:57:06.371Z,98732.78
2023-03-06T18:59:33.189Z,98731.97
2023-03-06T19:01:59.841Z,98719.13
2023-03-06T19:04:27.145Z,98728.53
2023-03-06T19:06:54.898Z,98728.53
2023-03-06T19:09:22.214Z,98722.56
2023-03-06T19:11:49.238Z,98731.13
2023-03-06T19:14:16.175Z,98725.13
2023-03-06T19:16:42.980Z,98726.84
2023-03-06T19:19:09.594Z,98719.16
2023-03-06T19:21:36.175Z,98723.44
2023-03-06T19:24:02.888Z,98720.03
2023-03-06T19:26:29.674Z,98719.16
2023-03-06T19:28:56.290Z,98708.94
2023-03-06T19:31:25.793Z,98713.19
2023-03-06T19:33:53.753Z,98714.88
2023-03-06T19:36:23.734Z,98714.06
2023-03-06T19:38:53.923Z,98714.88
2023-03-06T19:41:20.620Z,98715.75
2023-03-06T19:43:52.970Z,98714.06
2023-03-06T19:46:20.948Z,98718.31
2023-03-06T19:48:47.718Z,98713.19
2023-03-06T19:51:14.506Z,98718.31
2023-03-06T19:53:41.272Z,98706.34
2023-03-06T19:56:11.347Z,98703.78
2023-03-06T19:58:38.363Z,98696.09
2023-03-06T20:01:07.748Z,98702.94
2023-03-06T20:03:34.311Z,98693.53
2023-03-06T20:06:01.221Z,98701.22
2023-03-06T20:08:27.800Z,98699.53
2023-03-06T20:10:54.361Z,98696.97
2023-03-06T20:13:20.925Z,98699.53
2023-03-06T20:15:47.478Z,98694.38
2023-03-06T20:18:14.210Z,98693.56
2023-03-06T20:20:40.881Z,98685.00
2023-03-06T20:23:07.440Z,98686.69
2023-03-06T20:25:36.525Z,98690.13
2023-03-06T20:28:04.075Z,98685.00
2023-03-06T20:30:37.752Z,98689.25
2023-03-06T20:33:05.417Z,98688.41
2023-03-06T20:35:32.104Z,98691.81
2023-03-06T20:37:59.817Z,98679.00
2023-03-06T20:40:26.568Z,98675.59
2023-03-06T20:42:53.097Z,98671.28
2023-03-06T20:45:19.756Z,98672.16
2023-03-06T20:47:47.168Z,98672.16
2023-03-06T20:50:15.370Z,98673.03
2023-03-06T20:52:42.011Z,98680.72
2023-03-06T20:55:09.106Z,98680.72
2023-03-06T20:57:35.706Z,98669.59
2023-03-06T21:00:03.523Z,98681.59
2023-03-06T21:02:30.186Z,98681.59
2023-03-06T21:04:56.725Z,98675.59
2023-03-06T21:07:23.396Z,98672.16
2023-03-06T21:09:49.942Z,98673.03
2023-03-06T21:12:16.679Z,98675.59
2023-03-06T21:14:43.408Z,98673.88
2023-03-06T21:17:09.925Z,98671.31
2023-03-06T21:19:36.915Z,98670.47
2023-03-06T21:22:03.595Z,98679.03
2023-03-06T21:24:30.133Z,98677.31
2023-03-06T21:26:56.690Z,98674.75
2023-03-06T21:29:23.216Z,98671.34
2023-03-06T21:31:49.905Z,98665.34
2023-03-06T21:34:16.445Z,98661.91
2023-03-06T21:36:43.566Z,98667.09
2023-03-06T21:39:10.598Z,98663.66
2023-03-06T21:41:38.157Z,98660.22
2023-03-06T21:44:05.736Z,98661.09
2023-03-06T21:46:33.026Z,98661.94
2023-03-06T21:48:59.729Z,98655.94
2023-03-06T21:51:27.211Z,98654.25
2023-03-06T21:53:54.767Z,98656.81
2023-03-06T21:56:25.018Z,98663.66
2023-03-06T21:58:51.637Z,98661.94
2023-03-06T22:01:22.158Z,98649.97
2023-03-06T22:03:48.818Z,98645.72
2023-03-06T22:06:19.079Z,98653.41
2023-03-06T22:08:45.956Z,98648.28
2023-03-06T22:11:15.962Z,98648.28
2023-03-06T22:13:43.037Z,98644.88
2023-03-06T22:16:11.677Z,98638.88
2023-03-06T22:18:38.353Z,98636.31
2023-03-06T22:21:08.189Z,98637.19
2023-03-06T22:23:34.782Z,98640.56
2023-03-06T22:26:04.226Z,98642.31
2023-03-06T22:28:31.289Z,98637.19
2023-03-06T22:31:09.030Z,98641.44
2023-03-06T22:33:36.119Z,98634.63
2023-03-06T22:36:06.378Z,98634.63
2023-03-06T22:38:35.878Z,98632.88
2023-03-06T22:41:02.964Z,98638.88
2023-03-06T22:43:29.796Z,98637.19
2023-03-06T22:46:01.312Z,98636.31
2023-03-06T22:48:28.354Z,98640.56
2023-03-06T22:50:54.888Z,98638.00
2023-03-06T22:53:21.864Z,98634.59
2023-03-06T22:55:48.394Z,98632.88
2023-03-06T22:58:15.539Z,98629.47
2023-03-06T23:00:42.082Z,98632.88
2023-03-06T23:03:09.050Z,98628.63
2023-03-06T23:05:40.912Z,98625.19
2023-03-06T23:08:07.447Z,98624.31
2023-03-06T23:10:41.403Z,98620.94
2023-03-06T23:13:07.999Z,98632.88
2023-03-06T23:15:36.394Z,98627.75
2023-03-06T23:18:03.453Z,98626.06
2023-03-06T23:20:30.203Z,98628.63
2023-03-06T23:22:56.716Z,98617.50
2023-03-06T23:25:23.277Z,98617.50
2023-03-06T23:27:49.829Z,98614.09
2023-03-06T23:30:16.537Z,98617.53
2023-03-06T23:32:45.765Z,98618.38
2023-03-06T23:35:12.508Z,98619.25
2023-03-06T23:37:39.140Z,98626.06
2023-03-06T23:40:07.845Z,98626.06
2023-03-06T23:42:34.351Z,98626.03
2023-03-06T23:45:00.977Z,98628.59
2023-03-06T23:47:31.510Z,98628.59
2023-03-06T23:49:58.030Z,98626.06
2023-03-06T23:52:24.703Z,98614.94
2023-03-06T23:54:51.253Z,98618.34
2023-03-06T23:57:17.799Z,98615.78
2023-03-06T23:59:44.485Z,98614.09
